sensor_id;sensor_type;location;lat;lon;timestamp;P1;durP1;ratioP1;P2;durP2;ratioP2
77214;SDS011;66210;53.282;9.864;2023-03-13T00:03:44;26.25;;;3.92;;
77214;SDS011;66210;53.282;9.864;2023-03-13T00:06:10;31.17;;;4.93;;
77214;SDS011;66210;53.282;9.864;2023-03-13T00:08:37;31.50;;;4.13;;
77214;SDS011;66210;53.282;9.864;2023-03-13T00:11:04;21.98;;;4.68;;
77214;SDS011;66210;53.282;9.864;2023-03-13T00:13:33;23.05;;;4.32;;
77214;SDS011;66210;53.282;9.864;2023-03-13T00:16:00;26.70;;;4.40;;
77214;SDS011;66210;53.282;9.864;2023-03-13T00:18:29;40.95;;;4.32;;
77214;SDS011;66210;53.282;9.864;2023-03-13T00:21:03;29.17;;;4.03;;
77214;SDS011;66210;53.282;9.864;2023-03-13T00:23:31;30.95;;;3.92;;
77214;SDS011;66210;53.282;9.864;2023-03-13T00:25:59;27.23;;;4.53;;
77214;SDS011;66210;53.282;9.864;2023-03-13T00:28:31;22.92;;;4.25;;
77214;SDS011;66210;53.282;9.864;2023-03-13T00:31:00;30.45;;;4.95;;
77214;SDS011;66210;53.282;9.864;2023-03-13T00:33:31;34.65;;;5.43;;
77214;SDS011;66210;53.282;9.864;2023-03-13T00:35:59;24.98;;;4.45;;
77214;SDS011;66210;53.282;9.864;2023-03-13T00:38:27;34.28;;;4.72;;
77214;SDS011;66210;53.282;9.864;2023-03-13T00:41:05;26.77;;;5.32;;
77214;SDS011;66210;53.282;9.864;2023-03-13T00:43:39;27.20;;;5.43;;
77214;SDS011;66210;53.282;9.864;2023-03-13T00:46:07;34.85;;;4.82;;
77214;SDS011;66210;53.282;9.864;2023-03-13T00:48:34;30.90;;;5.05;;
77214;SDS011;66210;53.282;9.864;2023-03-13T00:51:01;29.95;;;4.78;;
77214;SDS011;66210;53.282;9.864;2023-03-13T00:53:29;37.33;;;4.50;;
77214;SDS011;66210;53.282;9.864;2023-03-13T00:55:57;34.05;;;5.18;;
77214;SDS011;66210;53.282;9.864;2023-03-13T00:58:26;29.38;;;4.90;;
77214;SDS011;66210;53.282;9.864;2023-03-13T01:00:54;28.05;;;4.47;;
77214;SDS011;66210;53.282;9.864;2023-03-13T01:03:21;32.72;;;5.43;;
77214;SDS011;66210;53.282;9.864;2023-03-13T01:05:54;41.42;;;5.38;;
77214;SDS011;66210;53.282;9.864;2023-03-13T01:08:25;26.77;;;5.05;;
77214;SDS011;66210;53.282;9.864;2023-03-13T01:11:06;36.10;;;4.85;;
77214;SDS011;66210;53.282;9.864;2023-03-13T01:13:35;34.63;;;5.15;;
77214;SDS011;66210;53.282;9.864;2023-03-13T01:16:03;30.38;;;4.65;;
77214;SDS011;66210;53.282;9.864;2023-03-13T01:18:32;35.95;;;4.88;;
77214;SDS011;66210;53.282;9.864;2023-03-13T01:21:00;37.22;;;5.10;;
77214;SDS011;66210;53.282;9.864;2023-03-13T01:23:27;29.75;;;5.03;;
77214;SDS011;66210;53.282;9.864;2023-03-13T01:25:54;24.65;;;4.40;;
77214;SDS011;66210;53.282;9.864;2023-03-13T01:28:21;28.15;;;4.70;;
77214;SDS011;66210;53.282;9.864;2023-03-13T01:30:49;24.63;;;4.45;;
77214;SDS011;66210;53.282;9.864;2023-03-13T01:33:16;45.25;;;3.42;;
77214;SDS011;66210;53.282;9.864;2023-03-13T01:35:43;28.40;;;4.68;;
77214;SDS011;66210;53.282;9.864;2023-03-13T01:38:10;17.77;;;3.65;;
77214;SDS011;66210;53.282;9.864;2023-03-13T01:40:41;20.77;;;3.40;;
77214;SDS011;66210;53.282;9.864;2023-03-13T01:43:31;22.70;;;3.53;;
77214;SDS011;66210;53.282;9.864;2023-03-13T01:50:59;30.67;;;4.97;;
77214;SDS011;66210;53.282;9.864;2023-03-13T01:53:28;28.40;;;4.35;;
77214;SDS011;66210;53.282;9.864;2023-03-13T01:55:59;20.50;;;3.88;;
77214;SDS011;66210;53.282;9.864;2023-03-13T01:58:30;21.92;;;3.58;;
77214;SDS011;66210;53.282;9.864;2023-03-13T02:00:57;31.52;;;4.30;;
77214;SDS011;66210;53.282;9.864;2023-03-13T02:03:24;33.90;;;4.88;;
77214;SDS011;66210;53.282;9.864;2023-03-13T02:05:52;28.77;;;4.50;;
77214;SDS011;66210;53.282;9.864;2023-03-13T02:08:22;28.92;;;3.88;;
77214;SDS011;66210;53.282;9.864;2023-03-13T02:10:55;26.92;;;3.83;;
77214;SDS011;66210;53.282;9.864;2023-03-13T02:13:29;12.20;;;3.58;;
77214;SDS011;66210;53.282;9.864;2023-03-13T02:15:56;33.58;;;4.93;;
77214;SDS011;66210;53.282;9.864;2023-03-13T02:18:23;33.20;;;5.22;;
77214;SDS011;66210;53.282;9.864;2023-03-13T02:20:51;31.92;;;4.88;;
77214;SDS011;66210;53.282;9.864;2023-03-13T02:23:28;34.72;;;5.13;;
77214;SDS011;66210;53.282;9.864;2023-03-13T02:26:01;33.92;;;5.30;;
77214;SDS011;66210;53.282;9.864;2023-03-13T02:28:32;29.80;;;4.05;;
77214;SDS011;66210;53.282;9.864;2023-03-13T02:31:00;27.92;;;4.05;;
77214;SDS011;66210;53.282;9.864;2023-03-13T02:33:28;36.95;;;4.40;;
77214;SDS011;66210;53.282;9.864;2023-03-13T02:35:57;26.85;;;5.25;;
77214;SDS011;66210;53.282;9.864;2023-03-13T02:38:26;36.65;;;4.68;;
77214;SDS011;66210;53.282;9.864;2023-03-13T02:40:55;43.35;;;4.88;;
77214;SDS011;66210;53.282;9.864;2023-03-13T02:43:28;29.83;;;4.65;;
77214;SDS011;66210;53.282;9.864;2023-03-13T02:46:01;32.67;;;4.32;;
77214;SDS011;66210;53.282;9.864;2023-03-13T02:48:36;30.45;;;4.38;;
77214;SDS011;66210;53.282;9.864;2023-03-13T02:51:09;24.23;;;3.95;;
77214;SDS011;66210;53.282;9.864;2023-03-13T02:53:42;28.38;;;4.22;;
77214;SDS011;66210;53.282;9.864;2023-03-13T02:56:09;19.60;;;4.25;;
77214;SDS011;66210;53.282;9.864;2023-03-13T02:58:42;26.52;;;4.07;;
77214;SDS011;66210;53.282;9.864;2023-03-13T03:01:15;33.65;;;4.07;;
77214;SDS011;66210;53.282;9.864;2023-03-13T03:03:42;37.45;;;4.00;;
77214;SDS011;66210;53.282;9.864;2023-03-13T03:06:09;31.48;;;3.60;;
77214;SDS011;66210;53.282;9.864;2023-03-13T03:08:36;23.42;;;3.40;;
77214;SDS011;66210;53.282;9.864;2023-03-13T03:11:06;27.48;;;4.50;;
77214;SDS011;66210;53.282;9.864;2023-03-13T03:13:33;33.67;;;3.90;;
77214;SDS011;66210;53.282;9.864;2023-03-13T03:16:04;24.05;;;3.63;;
77214;SDS011;66210;53.282;9.864;2023-03-13T03:18:35;30.88;;;4.28;;
77214;SDS011;66210;53.282;9.864;2023-03-13T03:21:02;19.80;;;3.83;;
77214;SDS011;66210;53.282;9.864;2023-03-13T03:23:32;36.00;;;3.40;;
77214;SDS011;66210;53.282;9.864;2023-03-13T03:25:59;51.67;;;4.57;;
77214;SDS011;66210;53.282;9.864;2023-03-13T03:28:27;29.52;;;3.80;;
77214;SDS011;66210;53.282;9.864;2023-03-13T03:30:54;29.67;;;3.90;;
77214;SDS011;66210;53.282;9.864;2023-03-13T03:33:21;43.80;;;3.35;;
77214;SDS011;66210;53.282;9.864;2023-03-13T03:35:49;97.22;;;5.13;;
77214;SDS011;66210;53.282;9.864;2023-03-13T03:38:16;25.85;;;3.35;;
77214;SDS011;66210;53.282;9.864;2023-03-13T03:40:43;34.30;;;3.75;;
77214;SDS011;66210;53.282;9.864;2023-03-13T03:43:10;121.15;;;4.82;;
77214;SDS011;66210;53.282;9.864;2023-03-13T03:45:36;30.40;;;3.00;;
77214;SDS011;66210;53.282;9.864;2023-03-13T03:48:03;40.75;;;3.53;;
77214;SDS011;66210;53.282;9.864;2023-03-13T03:50:30;25.23;;;3.33;;
77214;SDS011;66210;53.282;9.864;2023-03-13T03:52:56;27.58;;;3.72;;
77214;SDS011;66210;53.282;9.864;2023-03-13T03:55:23;25.40;;;3.53;;
77214;SDS011;66210;53.282;9.864;2023-03-13T03:57:50;28.70;;;3.60;;
77214;SDS011;66210;53.282;9.864;2023-03-13T04:00:17;43.33;;;4.30;;
77214;SDS011;66210;53.282;9.864;2023-03-13T04:02:45;35.03;;;3.15;;
77214;SDS011;66210;53.282;9.864;2023-03-13T04:05:12;22.80;;;3.30;;
77214;SDS011;66210;53.282;9.864;2023-03-13T04:07:39;38.13;;;3.63;;
77214;SDS011;66210;53.282;9.864;2023-03-13T04:10:06;31.27;;;4.20;;
77214;SDS011;66210;53.282;9.864;2023-03-13T04:12:33;35.88;;;3.78;;
77214;SDS011;66210;53.282;9.864;2023-03-13T04:14:59;21.38;;;3.20;;
77214;SDS011;66210;53.282;9.864;2023-03-13T04:17:26;18.65;;;3.47;;
77214;SDS011;66210;53.282;9.864;2023-03-13T04:19:53;29.70;;;4.65;;
77214;SDS011;66210;53.282;9.864;2023-03-13T04:22:20;254.05;;;9.35;;
77214;SDS011;66210;53.282;9.864;2023-03-13T04:24:46;28.92;;;3.10;;
77214;SDS011;66210;53.282;9.864;2023-03-13T04:27:13;28.25;;;3.85;;
77214;SDS011;66210;53.282;9.864;2023-03-13T04:29:40;41.80;;;3.75;;
77214;SDS011;66210;53.282;9.864;2023-03-13T04:32:07;23.92;;;3.35;;
77214;SDS011;66210;53.282;9.864;2023-03-13T04:34:34;30.63;;;3.42;;
77214;SDS011;66210;53.282;9.864;2023-03-13T04:37:00;43.00;;;3.50;;
77214;SDS011;66210;53.282;9.864;2023-03-13T04:39:27;294.02;;;9.88;;
77214;SDS011;66210;53.282;9.864;2023-03-13T04:41:54;20.92;;;3.10;;
77214;SDS011;66210;53.282;9.864;2023-03-13T04:44:21;42.65;;;3.15;;
77214;SDS011;66210;53.282;9.864;2023-03-13T04:46:48;197.88;;;6.65;;
77214;SDS011;66210;53.282;9.864;2023-03-13T04:49:15;28.27;;;3.47;;
77214;SDS011;66210;53.282;9.864;2023-03-13T04:51:42;47.63;;;3.50;;
77214;SDS011;66210;53.282;9.864;2023-03-13T04:54:10;17.13;;;3.10;;
77214;SDS011;66210;53.282;9.864;2023-03-13T04:56:37;27.77;;;3.72;;
77214;SDS011;66210;53.282;9.864;2023-03-13T04:59:10;25.10;;;3.30;;
77214;SDS011;66210;53.282;9.864;2023-03-13T05:01:38;24.05;;;3.03;;
77214;SDS011;66210;53.282;9.864;2023-03-13T05:04:06;20.58;;;3.42;;
77214;SDS011;66210;53.282;9.864;2023-03-13T05:06:32;31.75;;;3.42;;
77214;SDS011;66210;53.282;9.864;2023-03-13T05:08:59;32.72;;;3.20;;
77214;SDS011;66210;53.282;9.864;2023-03-13T05:11:27;86.50;;;4.43;;
77214;SDS011;66210;53.282;9.864;2023-03-13T05:13:54;41.28;;;3.60;;
77214;SDS011;66210;53.282;9.864;2023-03-13T05:16:21;28.33;;;3.55;;
77214;SDS011;66210;53.282;9.864;2023-03-13T05:18:48;21.13;;;3.13;;
77214;SDS011;66210;53.282;9.864;2023-03-13T05:21:15;28.85;;;3.47;;
77214;SDS011;66210;53.282;9.864;2023-03-13T05:23:41;25.23;;;4.05;;
77214;SDS011;66210;53.282;9.864;2023-03-13T05:26:08;22.92;;;2.92;;
77214;SDS011;66210;53.282;9.864;2023-03-13T05:28:35;18.92;;;3.20;;
77214;SDS011;66210;53.282;9.864;2023-03-13T05:31:01;20.98;;;3.63;;
77214;SDS011;66210;53.282;9.864;2023-03-13T05:33:28;25.58;;;3.80;;
77214;SDS011;66210;53.282;9.864;2023-03-13T05:35:55;13.02;;;2.55;;
77214;SDS011;66210;53.282;9.864;2023-03-13T05:38:22;15.90;;;3.35;;
77214;SDS011;66210;53.282;9.864;2023-03-13T05:40:48;16.77;;;3.25;;
77214;SDS011;66210;53.282;9.864;2023-03-13T05:43:15;14.95;;;3.58;;
77214;SDS011;66210;53.282;9.864;2023-03-13T05:45:42;12.85;;;2.60;;
77214;SDS011;66210;53.282;9.864;2023-03-13T05:48:09;13.65;;;2.85;;
77214;SDS011;66210;53.282;9.864;2023-03-13T05:50:35;17.45;;;2.80;;
77214;SDS011;66210;53.282;9.864;2023-03-13T05:53:02;24.20;;;2.63;;
77214;SDS011;66210;53.282;9.864;2023-03-13T05:55:29;17.45;;;2.78;;
77214;SDS011;66210;53.282;9.864;2023-03-13T05:57:55;15.00;;;2.90;;
77214;SDS011;66210;53.282;9.864;2023-03-13T06:00:22;18.38;;;3.00;;
77214;SDS011;66210;53.282;9.864;2023-03-13T06:02:50;15.43;;;2.70;;
77214;SDS011;66210;53.282;9.864;2023-03-13T06:05:17;63.72;;;3.30;;
77214;SDS011;66210;53.282;9.864;2023-03-13T06:07:44;9.23;;;2.50;;
77214;SDS011;66210;53.282;9.864;2023-03-13T06:10:10;86.53;;;3.80;;
77214;SDS011;66210;53.282;9.864;2023-03-13T06:12:37;19.52;;;2.80;;
77214;SDS011;66210;53.282;9.864;2023-03-13T06:15:04;12.77;;;2.40;;
77214;SDS011;66210;53.282;9.864;2023-03-13T06:17:32;74.68;;;4.45;;
77214;SDS011;66210;53.282;9.864;2023-03-13T06:19:59;7.28;;;2.38;;
77214;SDS011;66210;53.282;9.864;2023-03-13T06:22:26;7.85;;;2.28;;
77214;SDS011;66210;53.282;9.864;2023-03-13T06:24:52;7.70;;;1.80;;
77214;SDS011;66210;53.282;9.864;2023-03-13T06:27:19;19.92;;;2.22;;
77214;SDS011;66210;53.282;9.864;2023-03-13T06:29:46;22.85;;;2.42;;
77214;SDS011;66210;53.282;9.864;2023-03-13T06:32:12;8.88;;;2.00;;
77214;SDS011;66210;53.282;9.864;2023-03-13T06:34:39;8.57;;;1.98;;
77214;SDS011;66210;53.282;9.864;2023-03-13T06:37:06;8.82;;;1.75;;
77214;SDS011;66210;53.282;9.864;2023-03-13T06:39:33;7.63;;;2.00;;
77214;SDS011;66210;53.282;9.864;2023-03-13T06:41:59;12.35;;;2.10;;
77214;SDS011;66210;53.282;9.864;2023-03-13T06:44:26;12.13;;;2.45;;
77214;SDS011;66210;53.282;9.864;2023-03-13T06:46:53;39.33;;;2.67;;
77214;SDS011;66210;53.282;9.864;2023-03-13T06:49:19;7.25;;;1.90;;
77214;SDS011;66210;53.282;9.864;2023-03-13T06:51:46;4.70;;;1.60;;
77214;SDS011;66210;53.282;9.864;2023-03-13T06:54:13;5.72;;;2.10;;
77214;SDS011;66210;53.282;9.864;2023-03-13T06:56:39;12.55;;;2.03;;
77214;SDS011;66210;53.282;9.864;2023-03-13T06:59:06;7.57;;;2.30;;
77214;SDS011;66210;53.282;9.864;2023-03-13T07:01:33;9.07;;;2.20;;
77214;SDS011;66210;53.282;9.864;2023-03-13T07:04:00;12.85;;;2.35;;
77214;SDS011;66210;53.282;9.864;2023-03-13T07:06:27;10.40;;;2.60;;
77214;SDS011;66210;53.282;9.864;2023-03-13T07:08:53;10.30;;;2.25;;
77214;SDS011;66210;53.282;9.864;2023-03-13T07:11:20;47.95;;;3.28;;
77214;SDS011;66210;53.282;9.864;2023-03-13T07:13:47;105.03;;;4.32;;
77214;SDS011;66210;53.282;9.864;2023-03-13T07:16:14;8.45;;;2.30;;
77214;SDS011;66210;53.282;9.864;2023-03-13T07:18:41;7.63;;;2.40;;
77214;SDS011;66210;53.282;9.864;2023-03-13T07:21:10;7.45;;;2.40;;
77214;SDS011;66210;53.282;9.864;2023-03-13T07:23:37;8.15;;;2.78;;
77214;SDS011;66210;53.282;9.864;2023-03-13T07:26:05;9.52;;;2.63;;
77214;SDS011;66210;53.282;9.864;2023-03-13T07:28:35;39.50;;;2.90;;
77214;SDS011;66210;53.282;9.864;2023-03-13T07:31:07;7.88;;;2.50;;
77214;SDS011;66210;53.282;9.864;2023-03-13T07:33:37;6.60;;;2.15;;
77214;SDS011;66210;53.282;9.864;2023-03-13T07:36:05;7.40;;;2.30;;
77214;SDS011;66210;53.282;9.864;2023-03-13T07:38:32;11.43;;;2.47;;
77214;SDS011;66210;53.282;9.864;2023-03-13T07:40:59;10.82;;;2.42;;
77214;SDS011;66210;53.282;9.864;2023-03-13T07:43:27;9.70;;;2.88;;
77214;SDS011;66210;53.282;9.864;2023-03-13T07:46:01;38.35;;;3.90;;
77214;SDS011;66210;53.282;9.864;2023-03-13T07:48:31;10.13;;;2.95;;
77214;SDS011;66210;53.282;9.864;2023-03-13T07:51:00;12.82;;;2.78;;
77214;SDS011;66210;53.282;9.864;2023-03-13T07:53:27;7.28;;;2.63;;
77214;SDS011;66210;53.282;9.864;2023-03-13T07:55:58;10.70;;;3.03;;
77214;SDS011;66210;53.282;9.864;2023-03-13T07:58:32;6.15;;;3.05;;
77214;SDS011;66210;53.282;9.864;2023-03-13T08:01:01;4.72;;;3.10;;
77214;SDS011;66210;53.282;9.864;2023-03-13T08:03:34;46.60;;;4.00;;
77214;SDS011;66210;53.282;9.864;2023-03-13T08:06:19;6.10;;;3.30;;
77214;SDS011;66210;53.282;9.864;2023-03-13T08:08:51;92.82;;;5.45;;
77214;SDS011;66210;53.282;9.864;2023-03-13T08:11:22;44.72;;;3.85;;
77214;SDS011;66210;53.282;9.864;2023-03-13T08:13:50;9.25;;;2.92;;
77214;SDS011;66210;53.282;9.864;2023-03-13T08:16:19;8.32;;;3.80;;
77214;SDS011;66210;53.282;9.864;2023-03-13T08:18:54;4.43;;;2.67;;
77214;SDS011;66210;53.282;9.864;2023-03-13T08:21:24;19.65;;;4.40;;
77214;SDS011;66210;53.282;9.864;2023-03-13T08:23:54;7.32;;;3.63;;
77214;SDS011;66210;53.282;9.864;2023-03-13T08:26:23;7.50;;;3.88;;
77214;SDS011;66210;53.282;9.864;2023-03-13T08:28:54;17.80;;;4.40;;
77214;SDS011;66210;53.282;9.864;2023-03-13T08:31:24;7.95;;;4.25;;
77214;SDS011;66210;53.282;9.864;2023-03-13T08:33:52;34.65;;;4.82;;
77214;SDS011;66210;53.282;9.864;2023-03-13T08:36:20;6.65;;;4.80;;
77214;SDS011;66210;53.282;9.864;2023-03-13T08:38:51;6.43;;;4.15;;
77214;SDS011;66210;53.282;9.864;2023-03-13T08:41:20;8.95;;;4.63;;
77214;SDS011;66210;53.282;9.864;2023-03-13T08:43:50;11.60;;;4.85;;
77214;SDS011;66210;53.282;9.864;2023-03-13T08:46:18;9.05;;;4.57;;
77214;SDS011;66210;53.282;9.864;2023-03-13T08:48:48;7.28;;;4.60;;
77214;SDS011;66210;53.282;9.864;2023-03-13T08:51:17;7.05;;;4.70;;
77214;SDS011;66210;53.282;9.864;2023-03-13T08:53:44;9.88;;;4.80;;
77214;SDS011;66210;53.282;9.864;2023-03-13T08:56:13;7.03;;;4.57;;
77214;SDS011;66210;53.282;9.864;2023-03-13T08:58:41;9.07;;;4.22;;
77214;SDS011;66210;53.282;9.864;2023-03-13T09:01:09;9.43;;;5.22;;
77214;SDS011;66210;53.282;9.864;2023-03-13T09:06:05;6.95;;;4.63;;
77214;SDS011;66210;53.282;9.864;2023-03-13T09:08:32;9.05;;;4.85;;
77214;SDS011;66210;53.282;9.864;2023-03-13T09:11:00;9.45;;;4.50;;
77214;SDS011;66210;53.282;9.864;2023-03-13T09:15:57;8.27;;;4.65;;
77214;SDS011;66210;53.282;9.864;2023-03-13T09:18:26;7.97;;;3.90;;
77214;SDS011;66210;53.282;9.864;2023-03-13T09:20:53;18.05;;;5.25;;
77214;SDS011;66210;53.282;9.864;2023-03-13T09:23:19;9.00;;;4.88;;
77214;SDS011;66210;53.282;9.864;2023-03-13T09:25:48;9.00;;;5.53;;
77214;SDS011;66210;53.282;9.864;2023-03-13T09:28:17;12.90;;;5.55;;
77214;SDS011;66210;53.282;9.864;2023-03-13T09:30:43;8.38;;;5.03;;
77214;SDS011;66210;53.282;9.864;2023-03-13T09:33:10;7.00;;;5.18;;
77214;SDS011;66210;53.282;9.864;2023-03-13T09:35:37;9.43;;;4.38;;
77214;SDS011;66210;53.282;9.864;2023-03-13T09:38:04;8.15;;;5.28;;
77214;SDS011;66210;53.282;9.864;2023-03-13T09:40:36;8.30;;;5.15;;
77214;SDS011;66210;53.282;9.864;2023-03-13T09:43:13;11.95;;;5.05;;
77214;SDS011;66210;53.282;9.864;2023-03-13T09:45:46;7.93;;;4.55;;
77214;SDS011;66210;53.282;9.864;2023-03-13T09:48:33;7.30;;;5.43;;
77214;SDS011;66210;53.282;9.864;2023-03-13T09:53:47;7.07;;;4.95;;
77214;SDS011;66210;53.282;9.864;2023-03-13T09:56:19;10.88;;;5.25;;
77214;SDS011;66210;53.282;9.864;2023-03-13T09:59:10;11.52;;;4.38;;
77214;SDS011;66210;53.282;9.864;2023-03-13T10:01:52;13.43;;;4.68;;
77214;SDS011;66210;53.282;9.864;2023-03-13T10:06:58;11.68;;;5.32;;
77214;SDS011;66210;53.282;9.864;2023-03-13T10:09:27;11.75;;;4.80;;
77214;SDS011;66210;53.282;9.864;2023-03-13T10:20:13;9.73;;;4.00;;
77214;SDS011;66210;53.282;9.864;2023-03-13T10:25:24;7.63;;;4.25;;
77214;SDS011;66210;53.282;9.864;2023-03-13T10:27:58;11.45;;;4.60;;
77214;SDS011;66210;53.282;9.864;2023-03-13T10:30:26;8.45;;;4.57;;
77214;SDS011;66210;53.282;9.864;2023-03-13T10:33:43;8.20;;;4.25;;
77214;SDS011;66210;53.282;9.864;2023-03-13T10:36:00;7.82;;;4.53;;
77214;SDS011;66210;53.282;9.864;2023-03-13T10:38:27;6.88;;;5.07;;
77214;SDS011;66210;53.282;9.864;2023-03-13T10:40:56;9.60;;;5.55;;
77214;SDS011;66210;53.282;9.864;2023-03-13T10:43:24;10.60;;;5.07;;
77214;SDS011;66210;53.282;9.864;2023-03-13T10:45:52;9.85;;;4.47;;
77214;SDS011;66210;53.282;9.864;2023-03-13T10:48:23;9.40;;;5.32;;
77214;SDS011;66210;53.282;9.864;2023-03-13T10:50:53;6.43;;;4.45;;
77214;SDS011;66210;53.282;9.864;2023-03-13T10:56:08;13.60;;;4.95;;
77214;SDS011;66210;53.282;9.864;2023-03-13T10:58:47;7.78;;;5.50;;
77214;SDS011;66210;53.282;9.864;2023-03-13T11:03:51;8.95;;;4.68;;
77214;SDS011;66210;53.282;9.864;2023-03-13T11:06:24;13.73;;;4.85;;
77214;SDS011;66210;53.282;9.864;2023-03-13T11:09:10;8.48;;;4.75;;
77214;SDS011;66210;53.282;9.864;2023-03-13T11:11:49;8.80;;;4.82;;
77214;SDS011;66210;53.282;9.864;2023-03-13T11:14:23;7.93;;;4.38;;
77214;SDS011;66210;53.282;9.864;2023-03-13T11:16:53;9.95;;;4.22;;
77214;SDS011;66210;53.282;9.864;2023-03-13T11:22:12;9.73;;;3.75;;
77214;SDS011;66210;53.282;9.864;2023-03-13T11:24:51;7.30;;;4.03;;
77214;SDS011;66210;53.282;9.864;2023-03-13T11:27:41;7.03;;;3.63;;
77214;SDS011;66210;53.282;9.864;2023-03-13T11:30:15;7.30;;;3.65;;
77214;SDS011;66210;53.282;9.864;2023-03-13T11:32:54;5.95;;;2.95;;
77214;SDS011;66210;53.282;9.864;2023-03-13T11:36:14;5.47;;;2.97;;
77214;SDS011;66210;53.282;9.864;2023-03-13T11:38:26;7.03;;;2.88;;
77214;SDS011;66210;53.282;9.864;2023-03-13T11:41:45;9.18;;;3.28;;
77214;SDS011;66210;53.282;9.864;2023-03-13T11:57:55;5.55;;;2.25;;
77214;SDS011;66210;53.282;9.864;2023-03-13T12:00:50;5.80;;;2.70;;
77214;SDS011;66210;53.282;9.864;2023-03-13T12:03:54;6.53;;;2.30;;
77214;SDS011;66210;53.282;9.864;2023-03-13T12:09:32;7.75;;;2.20;;
77214;SDS011;66210;53.282;9.864;2023-03-13T12:12:14;5.28;;;2.22;;
77214;SDS011;66210;53.282;9.864;2023-03-13T12:14:46;5.63;;;2.25;;
77214;SDS011;66210;53.282;9.864;2023-03-13T12:20:33;5.30;;;2.05;;
77214;SDS011;66210;53.282;9.864;2023-03-13T12:26:03;5.43;;;2.03;;
77214;SDS011;66210;53.282;9.864;2023-03-13T12:36:47;6.97;;;1.90;;
77214;SDS011;66210;53.282;9.864;2023-03-13T12:39:21;5.30;;;1.75;;
77214;SDS011;66210;53.282;9.864;2023-03-13T12:42:05;5.50;;;1.60;;
77214;SDS011;66210;53.282;9.864;2023-03-13T12:44:35;2.60;;;1.58;;
77214;SDS011;66210;53.282;9.864;2023-03-13T12:47:06;5.57;;;1.48;;
77214;SDS011;66210;53.282;9.864;2023-03-13T12:57:59;3.30;;;1.52;;
77214;SDS011;66210;53.282;9.864;2023-03-13T13:00:36;3.75;;;1.63;;
77214;SDS011;66210;53.282;9.864;2023-03-13T13:03:13;1.83;;;1.40;;
77214;SDS011;66210;53.282;9.864;2023-03-13T13:06:05;5.32;;;1.52;;
77214;SDS011;66210;53.282;9.864;2023-03-13T13:08:36;3.13;;;1.77;;
77214;SDS011;66210;53.282;9.864;2023-03-13T13:14:01;4.68;;;1.60;;
77214;SDS011;66210;53.282;9.864;2023-03-13T13:16:31;6.28;;;1.58;;
77214;SDS011;66210;53.282;9.864;2023-03-13T13:19:45;7.05;;;1.50;;
77214;SDS011;66210;53.282;9.864;2023-03-13T13:24:53;4.07;;;1.60;;
77214;SDS011;66210;53.282;9.864;2023-03-13T13:30:00;4.18;;;1.80;;
77214;SDS011;66210;53.282;9.864;2023-03-13T13:32:31;5.40;;;1.50;;
77214;SDS011;66210;53.282;9.864;2023-03-13T13:37:38;2.15;;;1.30;;
77214;SDS011;66210;53.282;9.864;2023-03-13T13:42:50;3.05;;;1.75;;
77214;SDS011;66210;53.282;9.864;2023-03-13T13:45:20;3.97;;;1.50;;
77214;SDS011;66210;53.282;9.864;2023-03-13T13:53:44;3.85;;;1.40;;
77214;SDS011;66210;53.282;9.864;2023-03-13T13:56:30;8.20;;;2.13;;
77214;SDS011;66210;53.282;9.864;2023-03-13T14:01:47;3.90;;;1.90;;
77214;SDS011;66210;53.282;9.864;2023-03-13T14:04:21;2.25;;;1.38;;
77214;SDS011;66210;53.282;9.864;2023-03-13T14:06:53;2.38;;;1.42;;
77214;SDS011;66210;53.282;9.864;2023-03-13T14:12:28;7.50;;;1.70;;
77214;SDS011;66210;53.282;9.864;2023-03-13T14:15:11;2.85;;;1.27;;
77214;SDS011;66210;53.282;9.864;2023-03-13T14:17:49;8.57;;;2.13;;
77214;SDS011;66210;53.282;9.864;2023-03-13T14:20:18;4.78;;;1.65;;
77214;SDS011;66210;53.282;9.864;2023-03-13T14:22:49;3.47;;;1.50;;
77214;SDS011;66210;53.282;9.864;2023-03-13T14:25:16;5.97;;;1.70;;
77214;SDS011;66210;53.282;9.864;2023-03-13T14:27:43;3.90;;;1.77;;
77214;SDS011;66210;53.282;9.864;2023-03-13T14:30:12;3.88;;;1.50;;
77214;SDS011;66210;53.282;9.864;2023-03-13T14:32:40;6.35;;;1.83;;
77214;SDS011;66210;53.282;9.864;2023-03-13T14:35:08;5.25;;;1.77;;
77214;SDS011;66210;53.282;9.864;2023-03-13T14:37:41;3.85;;;1.50;;
77214;SDS011;66210;53.282;9.864;2023-03-13T14:40:25;5.88;;;1.65;;
77214;SDS011;66210;53.282;9.864;2023-03-13T14:42:57;3.97;;;1.80;;
77214;SDS011;66210;53.282;9.864;2023-03-13T14:45:27;4.72;;;1.65;;
77214;SDS011;66210;53.282;9.864;2023-03-13T14:48:00;4.25;;;1.70;;
77214;SDS011;66210;53.282;9.864;2023-03-13T14:50:28;5.25;;;1.60;;
77214;SDS011;66210;53.282;9.864;2023-03-13T14:53:00;4.38;;;1.70;;
77214;SDS011;66210;53.282;9.864;2023-03-13T14:55:31;2.38;;;1.45;;
77214;SDS011;66210;53.282;9.864;2023-03-13T14:58:43;2.15;;;1.40;;
77214;SDS011;66210;53.282;9.864;2023-03-13T15:00:53;3.03;;;1.55;;
77214;SDS011;66210;53.282;9.864;2023-03-13T15:03:21;2.88;;;1.80;;
77214;SDS011;66210;53.282;9.864;2023-03-13T15:08:38;4.40;;;1.50;;
77214;SDS011;66210;53.282;9.864;2023-03-13T15:13:54;3.70;;;1.70;;
77214;SDS011;66210;53.282;9.864;2023-03-13T15:16:22;4.15;;;1.50;;
77214;SDS011;66210;53.282;9.864;2023-03-13T15:18:50;2.35;;;1.30;;
77214;SDS011;66210;53.282;9.864;2023-03-13T15:21:19;4.93;;;1.40;;
77214;SDS011;66210;53.282;9.864;2023-03-13T15:23:58;5.45;;;1.67;;
77214;SDS011;66210;53.282;9.864;2023-03-13T15:26:27;2.40;;;1.42;;
77214;SDS011;66210;53.282;9.864;2023-03-13T15:28:54;2.63;;;1.35;;
77214;SDS011;66210;53.282;9.864;2023-03-13T15:31:22;3.17;;;1.40;;
77214;SDS011;66210;53.282;9.864;2023-03-13T15:33:55;2.10;;;1.33;;
77214;SDS011;66210;53.282;9.864;2023-03-13T15:36:24;1.88;;;1.40;;
77214;SDS011;66210;53.282;9.864;2023-03-13T15:38:51;3.95;;;1.33;;
77214;SDS011;66210;53.282;9.864;2023-03-13T15:41:19;3.92;;;1.30;;
77214;SDS011;66210;53.282;9.864;2023-03-13T15:43:47;2.97;;;1.20;;
77214;SDS011;66210;53.282;9.864;2023-03-13T15:46:18;3.42;;;1.52;;
77214;SDS011;66210;53.282;9.864;2023-03-13T15:48:46;5.32;;;1.42;;
77214;SDS011;66210;53.282;9.864;2023-03-13T15:51:13;1.40;;;1.15;;
77214;SDS011;66210;53.282;9.864;2023-03-13T15:53:44;3.22;;;1.40;;
77214;SDS011;66210;53.282;9.864;2023-03-13T15:58:43;3.08;;;1.45;;
77214;SDS011;66210;53.282;9.864;2023-03-13T16:01:11;2.55;;;1.50;;
77214;SDS011;66210;53.282;9.864;2023-03-13T16:03:39;1.95;;;1.17;;
77214;SDS011;66210;53.282;9.864;2023-03-13T16:06:17;3.45;;;1.52;;
77214;SDS011;66210;53.282;9.864;2023-03-13T16:08:46;1.80;;;1.20;;
77214;SDS011;66210;53.282;9.864;2023-03-13T16:11:14;2.28;;;1.20;;
77214;SDS011;66210;53.282;9.864;2023-03-13T16:13:42;4.28;;;1.67;;
77214;SDS011;66210;53.282;9.864;2023-03-13T16:16:12;2.47;;;1.45;;
77214;SDS011;66210;53.282;9.864;2023-03-13T16:18:47;2.55;;;1.40;;
77214;SDS011;66210;53.282;9.864;2023-03-13T16:21:17;6.15;;;1.55;;
77214;SDS011;66210;53.282;9.864;2023-03-13T16:23:46;4.18;;;1.50;;
77214;SDS011;66210;53.282;9.864;2023-03-13T16:26:23;3.63;;;1.50;;
77214;SDS011;66210;53.282;9.864;2023-03-13T16:28:51;5.80;;;1.50;;
77214;SDS011;66210;53.282;9.864;2023-03-13T16:33:47;3.83;;;1.50;;
77214;SDS011;66210;53.282;9.864;2023-03-13T16:36:18;3.55;;;1.52;;
77214;SDS011;66210;53.282;9.864;2023-03-13T16:38:47;2.88;;;1.40;;
77214;SDS011;66210;53.282;9.864;2023-03-13T16:41:15;2.38;;;1.23;;
77214;SDS011;66210;53.282;9.864;2023-03-13T16:43:43;4.78;;;1.42;;
77214;SDS011;66210;53.282;9.864;2023-03-13T16:46:14;1.98;;;1.40;;
77214;SDS011;66210;53.282;9.864;2023-03-13T16:48:43;2.47;;;1.52;;
77214;SDS011;66210;53.282;9.864;2023-03-13T16:51:28;3.00;;;1.30;;